createdAt,value
2024-04-21T00:00:01.643Z,99696.69
2024-04-21T00:02:09.204Z,99725.47
2024-04-21T00:04:12.589Z,99707.16
2024-04-21T00:06:16.180Z,99719.28
2024-04-21T00:08:19.859Z,99710.88
2024-04-21T00:10:23.241Z,99694.84
2024-04-21T00:12:26.591Z,99687.44
2024-04-21T00:14:29.987Z,99693.03
2024-04-21T00:16:33.630Z,99707.06
2024-04-21T00:18:37.366Z,99702.13
2024-04-21T00:20:41.042Z,99701.38
2024-04-21T00:22:44.878Z,99699.72
2024-04-21T00:24:48.101Z,99708.88
2024-04-21T00:26:51.399Z,99698.88
2024-04-21T00:28:55.143Z,99704.69
2024-04-21T00:30:58.638Z,99716.47
2024-04-21T00:33:01.685Z,99710.53
2024-04-21T00:35:05.580Z,99718.97
2024-04-21T00:37:08.974Z,99720.44
2024-04-21T00:39:12.071Z,99708.03
2024-04-21T00:41:15.275Z,99719.03
2024-04-21T00:43:18.381Z,99720.78
2024-04-21T00:45:29.222Z,99722.59
2024-04-21T00:47:38.848Z,99745.69
2024-04-21T00:49:42.778Z,99710.88
2024-04-21T00:51:46.285Z,99727.53
2024-04-21T00:53:51.258Z,99713.25
2024-04-21T00:55:55.222Z,99717.47
2024-04-21T00:57:58.312Z,99722.41
2024-04-21T01:00:01.132Z,99714.00
2024-04-21T01:02:04.068Z,99717.28
2024-04-21T01:04:06.908Z,99724.06
2024-04-21T01:06:10.079Z,99722.41
2024-04-21T01:08:14.070Z,99733.91
2024-04-21T01:10:17.293Z,99721.66
2024-04-21T01:12:20.308Z,99729.19
2024-04-21T01:14:23.227Z,99719.84
2024-04-21T01:16:26.095Z,99725.28
2024-04-21T01:18:29.367Z,99719.84
2024-04-21T01:20:35.691Z,99712.38
2024-04-21T01:22:49.501Z,99718.03
2024-04-21T01:24:52.426Z,99721.75
2024-04-21T01:26:56.361Z,99725.06
2024-04-21T01:28:59.612Z,99716.13
2024-04-21T01:31:02.756Z,99718.88
2024-04-21T01:33:06.034Z,99729.53
2024-04-21T01:35:09.113Z,99716.31
2024-04-21T01:37:12.097Z,99717.16
2024-04-21T01:39:14.979Z,99714.66
2024-04-21T01:41:18.028Z,99718.28
2024-04-21T01:43:20.903Z,99719.19
2024-04-21T01:45:24.437Z,99707.56
2024-04-21T01:47:27.410Z,99723.66
2024-04-21T01:49:30.644Z,99736.25
2024-04-21T01:51:33.628Z,99721.41
2024-04-21T01:53:37.202Z,99722.72
2024-04-21T01:55:40.322Z,99728.41
2024-04-21T01:57:44.436Z,99724.19
2024-04-21T01:59:47.845Z,99724.94
2024-04-21T02:01:51.678Z,99723.38
2024-04-21T02:03:54.885Z,99729.22
2024-04-21T02:05:57.919Z,99729.41
2024-04-21T02:08:00.836Z,99724.34
2024-04-21T02:10:03.767Z,99724.53
2024-04-21T02:12:07.409Z,99719.59
2024-04-21T02:14:10.531Z,99728.00
2024-04-21T02:16:13.659Z,99729.63
2024-04-21T02:18:16.831Z,99723.19
2024-04-21T02:20:19.903Z,99723.94
2024-04-21T02:22:23.142Z,99728.88
2024-04-21T02:24:27.707Z,99728.75
2024-04-21T02:26:30.727Z,99738.22
2024-04-21T02:28:33.627Z,99741.53
2024-04-21T02:30:36.368Z,99743.81
2024-04-21T02:32:40.013Z,99738.13
2024-04-21T02:34:44.437Z,99741.84
2024-04-21T02:36:47.766Z,99755.84
2024-04-21T02:38:50.404Z,99747.44
2024-04-21T02:40:53.700Z,99750.09
2024-04-21T02:42:56.710Z,99733.03
2024-04-21T02:45:01.089Z,99741.44
2024-04-21T02:47:04.065Z,99731.13
2024-04-21T02:49:06.880Z,99732.09
2024-04-21T02:51:09.756Z,99738.72
2024-04-21T02:53:12.491Z,99727.16
2024-04-21T02:55:15.708Z,99730.59
2024-04-21T02:57:18.830Z,99731.44
2024-04-21T02:59:21.741Z,99733.25
2024-04-21T03:01:24.734Z,99752.31
2024-04-21T03:03:27.652Z,99734.66
2024-04-21T03:05:30.480Z,99739.69
2024-04-21T03:07:33.413Z,99727.31
2024-04-21T03:09:36.344Z,99734.00
2024-04-21T03:11:39.273Z,99734.00
2024-04-21T03:13:42.250Z,99740.69
2024-04-21T03:15:47.516Z,99736.72
2024-04-21T03:17:51.986Z,99738.38
2024-04-21T03:19:54.972Z,99737.38
2024-04-21T03:21:58.296Z,99749.91
2024-04-21T03:24:01.192Z,99750.09
2024-04-21T03:26:04.155Z,99738.38
2024-04-21T03:28:07.337Z,99742.66
2024-04-21T03:30:10.742Z,99744.31
2024-04-21T03:32:16.791Z,99737.72
2024-04-21T03:34:19.711Z,99741.66
2024-04-21T03:36:22.924Z,99743.47
2024-04-21T03:38:26.028Z,99739.44
2024-04-21T03:40:28.984Z,99741.22
2024-04-21T03:42:31.951Z,99744.31
2024-04-21T03:44:35.420Z,99738.44
2024-04-21T03:46:38.243Z,99740.34
2024-04-21T03:48:41.866Z,99741.31
2024-04-21T03:50:44.769Z,99740.56
2024-04-21T03:52:47.594Z,99733.88
2024-04-21T03:54:52.243Z,99742.38
2024-04-21T03:56:54.973Z,99733.00
2024-04-21T03:58:58.388Z,99737.34
2024-04-21T04:01:01.411Z,99732.56
2024-04-21T04:03:04.755Z,99750.03
2024-04-21T04:05:08.124Z,99744.72
2024-04-21T04:07:11.145Z,99738.25
2024-04-21T04:09:13.955Z,99731.56
2024-04-21T04:11:17.234Z,99744.28
2024-04-21T04:13:20.173Z,99747.63
2024-04-21T04:15:23.534Z,99749.38
2024-04-21T04:17:26.336Z,99761.84
2024-04-21T04:19:29.206Z,99734.50
2024-04-21T04:21:32.899Z,99757.50
2024-04-21T04:23:36.624Z,99755.00
2024-04-21T04:25:40.385Z,99763.41
2024-04-21T04:27:44.083Z,99759.13
2024-04-21T04:29:47.494Z,99764.25
2024-04-21T04:31:50.673Z,99768.47
2024-04-21T04:33:54.198Z,99771.69
2024-04-21T04:35:57.774Z,99775.66
2024-04-21T04:38:00.939Z,99768.22
2024-04-21T04:40:04.287Z,99773.25
2024-04-21T04:42:08.432Z,99766.47
2024-04-21T04:44:12.000Z,99774.91
2024-04-21T04:46:15.733Z,99762.34
2024-04-21T04:48:19.225Z,99774.81
2024-04-21T04:50:22.567Z,99770.31
2024-04-21T04:52:25.460Z,99761.81
2024-04-21T04:54:28.962Z,99774.94
2024-04-21T04:56:32.368Z,99778.31
2024-04-21T04:58:35.387Z,99767.88
2024-04-21T05:00:38.347Z,99761.31
2024-04-21T05:02:41.614Z,99763.50
2024-04-21T05:04:45.089Z,99767.56
2024-04-21T05:06:50.100Z,99796.44
2024-04-21T05:08:53.014Z,99777.38
2024-04-21T05:10:56.502Z,99805.34
2024-04-21T05:13:00.179Z,99785.81
2024-04-21T05:15:03.254Z,99772.75
2024-04-21T05:17:06.346Z,99801.41
2024-04-21T05:19:09.807Z,99787.28
2024-04-21T05:21:12.964Z,99784.97
2024-04-21T05:23:15.958Z,99799.78
2024-04-21T05:25:19.540Z,99792.66
2024-04-21T05:27:22.985Z,99775.06
2024-04-21T05:29:26.474Z,99785.63
2024-04-21T05:31:29.708Z,99796.47
2024-04-21T05:33:33.273Z,99795.38
2024-04-21T05:35:37.276Z,99794.78
2024-04-21T05:37:40.221Z,99796.59
2024-04-21T05:39:43.476Z,99794.13
2024-04-21T05:41:47.062Z,99795.53
2024-04-21T05:43:50.728Z,99792.00
2024-04-21T05:46:06.744Z,99796.97
2024-04-21T05:48:10.296Z,99794.72
2024-04-21T05:50:14.015Z,99792.22
2024-04-21T05:52:17.351Z,99806.13
2024-04-21T05:54:20.806Z,99806.47
2024-04-21T05:56:24.050Z,99798.78
2024-04-21T05:58:27.129Z,99808.94
2024-04-21T06:00:30.195Z,99829.53
2024-04-21T06:02:33.659Z,99808.69
2024-04-21T06:04:37.541Z,99810.22
2024-04-21T06:06:41.146Z,99806.88
2024-04-21T06:08:44.334Z,99804.63
2024-04-21T06:10:48.640Z,99805.09
2024-04-21T06:12:55.618Z,99830.69
2024-04-21T06:14:58.977Z,99813.84
2024-04-21T06:17:02.177Z,99818.63
2024-04-21T06:19:05.662Z,99821.94
2024-04-21T06:21:09.724Z,99831.34
2024-04-21T06:23:13.257Z,99817.63
2024-04-21T06:25:16.501Z,99822.25
2024-04-21T06:27:19.965Z,99820.97
2024-04-21T06:29:23.858Z,99815.41
2024-04-21T06:31:27.388Z,99812.75
2024-04-21T06:33:30.593Z,99807.63
2024-04-21T06:35:33.863Z,99810.19
2024-04-21T06:37:37.242Z,99813.81
2024-04-21T06:39:40.834Z,99810.06
2024-04-21T06:41:44.469Z,99812.66
2024-04-21T06:43:47.863Z,99810.09
2024-04-21T06:45:51.022Z,99808.81
2024-04-21T06:47:54.624Z,99829.09
2024-04-21T06:49:57.884Z,99819.19
2024-04-21T06:52:01.166Z,99809.75
2024-04-21T06:54:04.466Z,99819.66
2024-04-21T06:56:08.318Z,99829.75
2024-04-21T06:58:11.188Z,99803.78
2024-04-21T07:00:15.926Z,99823.69
2024-04-21T07:02:19.968Z,99813.31
2024-04-21T07:04:23.958Z,99806.72
2024-04-21T07:06:27.844Z,99813.13
2024-04-21T07:08:30.876Z,99807.75
2024-04-21T07:10:34.391Z,99814.50
2024-04-21T07:12:38.329Z,99806.25
2024-04-21T07:14:41.990Z,99805.78
2024-04-21T07:16:45.921Z,99805.50
2024-04-21T07:18:50.740Z,99801.88
2024-04-21T07:20:56.236Z,99798.38
2024-04-21T07:22:59.587Z,99816.41
2024-04-21T07:25:12.970Z,99805.84
2024-04-21T07:27:23.005Z,99802.38
2024-04-21T07:29:26.365Z,99797.69
2024-04-21T07:31:31.819Z,99820.31
2024-04-21T07:33:35.575Z,99810.59
2024-04-21T07:35:39.477Z,99818.31
2024-04-21T07:37:43.060Z,99815.22
2024-04-21T07:39:46.193Z,99811.44
2024-04-21T07:41:49.517Z,99794.31
2024-04-21T07:43:52.843Z,99809.59
2024-04-21T07:45:58.960Z,99809.09
2024-04-21T07:48:03.775Z,99815.22
2024-04-21T07:50:08.421Z,99816.50
2024-04-21T07:52:11.974Z,99818.69
2024-04-21T07:54:15.323Z,99813.38
2024-04-21T07:56:18.589Z,99805.88
2024-04-21T07:58:22.202Z,99831.81
2024-04-21T08:00:26.008Z,99818.34
2024-04-21T08:02:31.218Z,99827.19
2024-04-21T08:04:35.160Z,99824.56
2024-04-21T08:06:39.445Z,99806.50
2024-04-21T08:08:43.505Z,99825.31
2024-04-21T08:10:54.032Z,99820.88
2024-04-21T08:13:02.039Z,99823.84
2024-04-21T08:15:07.357Z,99816.25
2024-04-21T08:17:10.596Z,99815.50
2024-04-21T08:19:13.765Z,99816.34
2024-04-21T08:21:17.607Z,99825.19
2024-04-21T08:23:21.877Z,99818.38
2024-04-21T08:25:25.432Z,99820.56
2024-04-21T08:27:28.871Z,99817.91
2024-04-21T08:29:33.653Z,99818.31
2024-04-21T08:31:38.498Z,99819.03
2024-04-21T08:33:41.959Z,99824.19
2024-04-21T08:35:59.525Z,99816.75
2024-04-21T08:38:02.828Z,99822.31
2024-04-21T08:40:07.748Z,99823.22
2024-04-21T08:42:12.072Z,99849.88
2024-04-21T08:44:16.582Z,99831.31
2024-04-21T08:46:26.970Z,99825.47
2024-04-21T08:48:32.296Z,99832.34
2024-04-21T08:50:36.571Z,99818.75
2024-04-21T08:52:39.779Z,99831.31
2024-04-21T08:54:43.226Z,99843.28
2024-04-21T08:56:51.072Z,99832.50
2024-04-21T08:58:56.092Z,99831.38
2024-04-21T09:00:59.468Z,99823.78
2024-04-21T09:03:03.235Z,99823.78
2024-04-21T09:05:08.771Z,99834.34
2024-04-21T09:07:13.152Z,99834.91
2024-04-21T09:09:17.680Z,99831.00
2024-04-21T09:11:21.300Z,99823.56
2024-04-21T09:13:26.070Z,99835.63
2024-04-21T09:15:30.973Z,99828.66
2024-04-21T09:17:34.886Z,99830.72
2024-04-21T09:19:38.480Z,99826.72
2024-04-21T09:21:42.823Z,99833.13
2024-04-21T09:23:46.833Z,99821.09
2024-04-21T09:25:50.382Z,99829.44
2024-04-21T09:27:53.726Z,99826.16
2024-04-21T09:30:00.624Z,99823.81
2024-04-21T09:32:03.797Z,99847.78
2024-04-21T09:34:07.357Z,99844.06
2024-04-21T09:36:11.153Z,99832.44
2024-04-21T09:38:14.792Z,99824.22
2024-04-21T09:40:18.752Z,99816.50
2024-04-21T09:42:22.937Z,99823.69
2024-04-21T09:44:29.188Z,99825.53
2024-04-21T09:46:34.999Z,99819.91
2024-04-21T09:48:39.229Z,99832.81
2024-04-21T09:50:46.127Z,99829.81
2024-04-21T09:52:51.638Z,99825.16
2024-04-21T09:54:55.373Z,99833.47
2024-04-21T09:57:10.084Z,99824.00
2024-04-21T09:59:13.790Z,99829.81
2024-04-21T10:01:32.927Z,99822.25
2024-04-21T10:03:40.023Z,99832.72
2024-04-21T10:05:44.610Z,99826.66
2024-04-21T10:07:52.781Z,99829.66
2024-04-21T10:09:57.166Z,99820.50
2024-04-21T10:12:00.622Z,99839.59
2024-04-21T10:14:05.684Z,99825.78
2024-04-21T10:16:09.844Z,99802.75
2024-04-21T10:18:22.367Z,99825.59
2024-04-21T10:20:33.608Z,99828.53
2024-04-21T10:22:38.691Z,99820.22
2024-04-21T10:24:42.884Z,99822.09
2024-04-21T10:26:46.297Z,99809.19
2024-04-21T10:28:49.511Z,99814.13
2024-04-21T10:30:53.521Z,99812.78
2024-04-21T10:33:04.575Z,99818.66
2024-04-21T10:35:08.218Z,99819.19
2024-04-21T10:37:15.562Z,99808.34
2024-04-21T10:39:25.960Z,99808.09
2024-04-21T10:41:32.551Z,99810.47
2024-04-21T10:43:35.940Z,99804.81
2024-04-21T10:45:40.947Z,99817.22
2024-04-21T10:47:44.454Z,99811.53
2024-04-21T10:49:48.625Z,99821.94
2024-04-21T10:51:54.234Z,99834.16
2024-04-21T10:53:57.818Z,99818.69
2024-04-21T10:56:01.255Z,99810.03
2024-04-21T10:58:05.999Z,99806.56
2024-04-21T11:00:12.492Z,99819.81
2024-04-21T11:02:16.947Z,99826.81
2024-04-21T11:04:20.907Z,99837.75
2024-04-21T11:06:24.813Z,99826.50
2024-04-21T11:08:30.124Z,99837.31
2024-04-21T11:10:34.379Z,99844.19
2024-04-21T11:12:37.777Z,99832.78
2024-04-21T11:14:40.990Z,99833.03
2024-04-21T11:16:52.511Z,99834.69
2024-04-21T11:18:55.979Z,99833.44
2024-04-21T11:21:00.390Z,99815.25
2024-04-21T11:23:04.907Z,99831.97
2024-04-21T11:25:10.000Z,99821.31
2024-04-21T11:27:14.541Z,99823.97
2024-04-21T11:29:19.185Z,99811.72
2024-04-21T11:31:24.564Z,99817.34
2024-04-21T11:33:28.495Z,99818.09
2024-04-21T11:35:32.243Z,99822.56
2024-04-21T11:37:35.940Z,99817.41
2024-04-21T11:39:39.276Z,99826.09
2024-04-21T11:41:45.077Z,99827.13
2024-04-21T11:43:55.088Z,99822.31
2024-04-21T11:46:05.508Z,99830.69
2024-04-21T11:48:09.600Z,99813.78
2024-04-21T11:50:13.325Z,99842.31
2024-04-21T11:52:16.687Z,99843.72
2024-04-21T11:54:19.825Z,99820.72
2024-04-21T11:56:24.040Z,99830.56
2024-04-21T11:58:29.002Z,99838.22
2024-04-21T12:00:32.571Z,99828.25
2024-04-21T12:02:36.466Z,99819.91
2024-04-21T12:04:40.270Z,99815.66
2024-04-21T12:06:44.042Z,99816.94
2024-04-21T12:08:47.707Z,99813.91
2024-04-21T12:10:51.123Z,99816.28
2024-04-21T12:12:54.746Z,99818.97
2024-04-21T12:14:58.323Z,99819.66
2024-04-21T12:17:01.569Z,99823.53
2024-04-21T12:19:05.061Z,99813.91
2024-04-21T12:21:09.026Z,99814.56
2024-04-21T12:23:12.531Z,99820.28
2024-04-21T12:25:16.512Z,99828.50
2024-04-21T12:27:20.143Z,99822.63
2024-04-21T12:29:23.702Z,99821.09
2024-04-21T12:31:28.240Z,99809.13
2024-04-21T12:33:31.858Z,99820.84
2024-04-21T12:35:35.133Z,99814.94
2024-04-21T12:37:38.757Z,99824.22
2024-04-21T12:39:42.199Z,99822.09
2024-04-21T12:41:46.154Z,99843.31
2024-04-21T12:43:49.818Z,99825.88
2024-04-21T12:45:53.777Z,99820.94
2024-04-21T12:47:57.396Z,99819.34
2024-04-21T12:50:00.991Z,99814.56
2024-04-21T12:52:04.981Z,99818.13
2024-04-21T12:54:09.089Z,99816.03
2024-04-21T12:56:12.746Z,99836.31
2024-04-21T12:58:18.383Z,99815.25
2024-04-21T13:00:21.961Z,99821.69
2024-04-21T13:02:25.873Z,99844.72
2024-04-21T13:04:29.959Z,99827.03
2024-04-21T13:06:34.041Z,99828.38
2024-04-21T13:08:37.642Z,99803.94
2024-04-21T13:10:41.138Z,99812.63
2024-04-21T13:12:44.681Z,99817.78
2024-04-21T13:14:48.922Z,99822.94
2024-04-21T13:16:53.017Z,99816.94
2024-04-21T13:18:56.075Z,99820.84
2024-04-21T13:21:01.180Z,99815.69
2024-04-21T13:23:04.595Z,99803.22
2024-04-21T13:25:08.646Z,99811.69
2024-04-21T13:27:13.183Z,99805.53
2024-04-21T13:29:16.560Z,99800.09
2024-04-21T13:31:21.042Z,99796.81
2024-04-21T13:33:24.484Z,99796.72
2024-04-21T13:35:27.969Z,99796.44
2024-04-21T13:37:31.610Z,99799.91
2024-04-21T13:39:35.213Z,99796.22
2024-04-21T13:41:38.929Z,99798.72
2024-04-21T13:43:42.374Z,99798.31
2024-04-21T13:45:45.986Z,99808.19
2024-04-21T13:47:49.830Z,99808.59
2024-04-21T13:49:53.252Z,99807.81
2024-04-21T13:51:56.697Z,99818.72
2024-04-21T13:54:00.279Z,99800.50
2024-04-21T13:56:04.256Z,99820.34
2024-04-21T13:58:07.650Z,99819.75
2024-04-21T14:00:12.373Z,99817.47
2024-04-21T14:02:18.133Z,99816.88
2024-04-21T14:04:25.947Z,99823.75
2024-04-21T14:06:31.557Z,99832.00
2024-04-21T14:08:34.847Z,99818.47
2024-04-21T14:10:38.219Z,99812.72
2024-04-21T14:12:42.852Z,99821.16
2024-04-21T14:14:48.190Z,99811.81
2024-04-21T14:16:52.201Z,99819.75
2024-04-21T14:18:58.373Z,99822.00
2024-04-21T14:21:03.019Z,99810.09
2024-04-21T14:23:06.455Z,99815.72
2024-04-21T14:25:09.680Z,99820.03
2024-04-21T14:27:15.277Z,99821.78
2024-04-21T14:29:18.829Z,99827.00
2024-04-21T14:31:22.332Z,99823.56
2024-04-21T14:33:29.113Z,99821.16
2024-04-21T14:35:33.392Z,99816.16
2024-04-21T14:37:37.183Z,99822.66
2024-04-21T14:39:40.646Z,99828.81
2024-04-21T14:41:44.303Z,99822.81
2024-04-21T14:43:48.308Z,99820.16
2024-04-21T14:45:52.949Z,99812.41
2024-04-21T14:47:57.008Z,99822.00
2024-04-21T14:50:02.334Z,99805.25
2024-04-21T14:52:06.427Z,99809.59
2024-04-21T14:54:13.762Z,99814.69
2024-04-21T14:56:24.725Z,99825.78
2024-04-21T14:58:29.351Z,99809.22
2024-04-21T15:00:34.377Z,99820.84
2024-04-21T15:02:39.856Z,99808.28
2024-04-21T15:04:44.941Z,99821.88
2024-04-21T15:06:49.101Z,99817.22
2024-04-21T15:09:01.195Z,99815.91
2024-04-21T15:11:05.465Z,99824.88
2024-04-21T15:13:08.983Z,99814.47
2024-04-21T15:15:13.075Z,99809.09
2024-04-21T15:17:17.068Z,99820.56
2024-04-21T15:19:20.991Z,99813.97
2024-04-21T15:21:24.913Z,99812.63
2024-04-21T15:23:28.314Z,99808.38
2024-04-21T15:25:31.914Z,99823.66
2024-04-21T15:27:36.037Z,99808.84
2024-04-21T15:29:39.736Z,99811.09
2024-04-21T15:31:44.030Z,99809.97
2024-04-21T15:33:47.700Z,99815.00
2024-04-21T15:35:51.386Z,99818.13
2024-04-21T15:37:56.409Z,99820.56
2024-04-21T15:40:00.403Z,99819.38
2024-04-21T15:42:04.554Z,99809.66
2024-04-21T15:44:08.352Z,99831.22
2024-04-21T15:46:13.672Z,99815.53
2024-04-21T15:48:16.924Z,99817.63
2024-04-21T15:50:20.733Z,99823.97
2024-04-21T15:52:24.934Z,99819.66
2024-04-21T15:54:28.794Z,99815.97
2024-04-21T15:56:32.074Z,99815.25
2024-04-21T15:58:35.631Z,99822.03
2024-04-21T16:00:43.072Z,99818.81
2024-04-21T16:02:47.523Z,99813.19
2024-04-21T16:04:51.271Z,99843.31
2024-04-21T16:06:57.326Z,99817.78
2024-04-21T16:09:01.239Z,99835.41
2024-04-21T16:11:06.018Z,99827.78
2024-04-21T16:13:09.630Z,99833.63
2024-04-21T16:15:14.892Z,99836.41
2024-04-21T16:17:18.772Z,99820.72
2024-04-21T16:19:22.565Z,99825.06
2024-04-21T16:21:27.176Z,99828.88
2024-04-21T16:23:31.316Z,99834.75
2024-04-21T16:25:35.640Z,99833.28
2024-04-21T16:27:41.450Z,99832.28
2024-04-21T16:29:44.845Z,99832.38
2024-04-21T16:31:48.812Z,99831.00
2024-04-21T16:33:53.588Z,99832.44
2024-04-21T16:36:02.208Z,99826.03
2024-04-21T16:38:06.537Z,99833.72
2024-04-21T16:40:10.909Z,99828.41
2024-04-21T16:42:15.354Z,99835.28
2024-04-21T16:44:19.515Z,99851.84
2024-04-21T16:46:30.877Z,99852.03
2024-04-21T16:48:35.232Z,99853.50
2024-04-21T16:50:39.492Z,99859.47
2024-04-21T16:52:43.322Z,99865.53
2024-04-21T16:54:47.449Z,99877.19
2024-04-21T16:56:52.094Z,99852.31
2024-04-21T16:58:58.269Z,99858.66
2024-04-21T17:01:03.451Z,99879.66
2024-04-21T17:03:07.584Z,99871.16
2024-04-21T17:05:12.046Z,99878.31
2024-04-21T17:07:21.420Z,99868.41
2024-04-21T17:09:25.318Z,99871.72
2024-04-21T17:11:31.827Z,99874.28
2024-04-21T17:13:35.807Z,99875.91
2024-04-21T17:15:39.668Z,99880.41
2024-04-21T17:17:44.495Z,99893.25
2024-04-21T17:19:48.444Z,99887.69
2024-04-21T17:21:51.978Z,99891.16
2024-04-21T17:23:55.567Z,99894.44
2024-04-21T17:25:59.300Z,99898.22
2024-04-21T17:28:07.433Z,99897.63
2024-04-21T17:30:12.307Z,99894.28
2024-04-21T17:32:16.304Z,99902.88
2024-04-21T17:34:20.373Z,99897.00
2024-04-21T17:36:23.927Z,99896.84
2024-04-21T17:38:27.650Z,99902.78
2024-04-21T17:40:33.088Z,99901.13
2024-04-21T17:42:37.384Z,99902.88
2024-04-21T17:44:41.454Z,99915.44
2024-04-21T17:46:54.925Z,99901.31
2024-04-21T17:48:58.968Z,99927.28
2024-04-21T17:51:02.607Z,99907.63
2024-04-21T17:53:06.123Z,99916.69
2024-04-21T17:55:09.889Z,99912.97
2024-04-21T17:57:13.130Z,99914.50
2024-04-21T17:59:17.187Z,99912.97
2024-04-21T18:01:21.198Z,99910.09
2024-04-21T18:03:25.019Z,99920.38
2024-04-21T18:05:30.092Z,99919.56
2024-04-21T18:07:34.885Z,99905.72
2024-04-21T18:09:38.331Z,99914.78
2024-04-21T18:11:42.160Z,99913.06
2024-04-21T18:13:46.421Z,99928.34
2024-04-21T18:15:50.646Z,99909.41
2024-04-21T18:17:54.382Z,99924.47
2024-04-21T18:19:57.854Z,99930.34
2024-04-21T18:22:02.153Z,99926.13
2024-04-21T18:24:06.656Z,99943.56
2024-04-21T18:26:10.109Z,99928.72
2024-04-21T18:28:13.954Z,99931.41
2024-04-21T18:30:17.933Z,99939.09
2024-04-21T18:32:22.056Z,99925.72
2024-04-21T18:34:26.519Z,99935.06
2024-04-21T18:36:30.185Z,99934.31
2024-04-21T18:38:34.004Z,99952.53
2024-04-21T18:40:39.911Z,99944.22
2024-04-21T18:42:43.541Z,99960.34
2024-04-21T18:44:52.456Z,99942.00
2024-04-21T18:46:56.221Z,99942.31
2024-04-21T18:48:59.977Z,99944.94
2024-04-21T18:51:06.655Z,99944.28
2024-04-21T18:53:10.742Z,99946.06
2024-04-21T18:55:14.271Z,99954.09
2024-04-21T18:57:18.326Z,99952.72
2024-04-21T18:59:22.392Z,99941.06
2024-04-21T19:01:26.533Z,99941.72
2024-04-21T19:03:31.069Z,99927.84
2024-04-21T19:05:43.441Z,99936.81
2024-04-21T19:07:46.714Z,99941.03
2024-04-21T19:09:51.106Z,99951.94
2024-04-21T19:11:55.236Z,99951.88
2024-04-21T19:13:59.007Z,99942.69
2024-04-21T19:16:07.778Z,99945.72
2024-04-21T19:18:14.721Z,99956.47
2024-04-21T19:20:19.472Z,99945.31
2024-04-21T19:22:23.339Z,99948.63
2024-04-21T19:24:29.324Z,99944.31
2024-04-21T19:26:34.782Z,99937.56
2024-04-21T19:28:40.358Z,99940.13
2024-04-21T19:30:46.092Z,99945.81
2024-04-21T19:32:50.275Z,99941.66
2024-04-21T19:34:54.126Z,99937.28
2024-04-21T19:36:57.249Z,99935.06
2024-04-21T19:39:01.029Z,99928.53
2024-04-21T19:41:04.560Z,99930.13
2024-04-21T19:43:08.968Z,99929.13
2024-04-21T19:45:12.544Z,99938.13
2024-04-21T19:47:16.513Z,99929.88
2024-04-21T19:49:23.412Z,99934.16
2024-04-21T19:51:27.918Z,99922.88
2024-04-21T19:53:31.086Z,99933.94
2024-04-21T19:55:34.694Z,99923.34
2024-04-21T19:57:40.367Z,99944.13
2024-04-21T19:59:43.695Z,99931.63
2024-04-21T20:01:47.206Z,99921.53
2024-04-21T20:03:51.099Z,99936.75
2024-04-21T20:05:55.160Z,99933.47
2024-04-21T20:07:58.840Z,99940.81
2024-04-21T20:10:02.889Z,99928.16
2024-04-21T20:12:07.286Z,99943.03
2024-04-21T20:14:10.656Z,99935.78
2024-04-21T20:16:32.893Z,99925.03
2024-04-21T20:18:37.235Z,99919.91
2024-04-21T20:20:40.986Z,99929.41
2024-04-21T20:22:44.494Z,99927.25
2024-04-21T20:24:52.005Z,99922.22
2024-04-21T20:26:55.562Z,99938.25
2024-04-21T20:28:58.862Z,99933.28
2024-04-21T20:31:02.589Z,99927.69
2024-04-21T20:33:08.651Z,99926.59
2024-04-21T20:35:14.162Z,99923.94
2024-04-21T20:37:18.807Z,99924.94
2024-04-21T20:39:22.619Z,99932.28
2024-04-21T20:41:29.087Z,99934.75
2024-04-21T20:43:32.591Z,99939.88
2024-04-21T20:45:35.997Z,99953.84
2024-04-21T20:47:39.278Z,99936.56
2024-04-21T20:49:42.623Z,99926.31
2024-04-21T20:51:45.799Z,99931.44
2024-04-21T20:53:48.934Z,99932.38
2024-04-21T20:55:52.146Z,99922.63
2024-04-21T20:57:55.288Z,99944.47
2024-04-21T20:59:58.670Z,99931.78
2024-04-21T21:02:01.669Z,99930.31
2024-04-21T21:04:05.308Z,99947.03
2024-04-21T21:06:08.546Z,99943.81
2024-04-21T21:08:11.620Z,99935.44
2024-04-21T21:10:14.790Z,99937.94
2024-04-21T21:12:18.568Z,99950.41
2024-04-21T21:14:21.893Z,99935.28
2024-04-21T21:16:25.190Z,99944.38
2024-04-21T21:18:28.867Z,99931.78
2024-04-21T21:20:31.851Z,99935.03
2024-04-21T21:22:35.733Z,99939.72
2024-04-21T21:24:39.333Z,99934.09
2024-04-21T21:26:42.831Z,99939.09
2024-04-21T21:28:46.045Z,99938.41
2024-04-21T21:30:49.391Z,99941.81
2024-04-21T21:32:52.752Z,99930.81
2024-04-21T21:34:55.881Z,99939.41
2024-04-21T21:36:59.160Z,99931.72
2024-04-21T21:39:05.784Z,99945.94
2024-04-21T21:41:08.811Z,99938.25
2024-04-21T21:43:11.787Z,99931.38
2024-04-21T21:45:15.094Z,99939.09
2024-04-21T21:47:18.861Z,99939.00
2024-04-21T21:49:21.929Z,99956.00
2024-04-21T21:51:25.118Z,99945.19
2024-04-21T21:53:27.960Z,99947.56
2024-04-21T21:55:31.518Z,99941.06
2024-04-21T21:57:35.279Z,99942.78
2024-04-21T21:59:38.841Z,99942.97
2024-04-21T22:01:42.021Z,99945.44
2024-04-21T22:03:45.313Z,99935.44
2024-04-21T22:05:48.295Z,99947.13
2024-04-21T22:07:51.365Z,99951.97
2024-04-21T22:09:54.331Z,99921.13
2024-04-21T22:11:57.675Z,99940.22
2024-04-21T22:14:00.747Z,99932.13
2024-04-21T22:16:05.530Z,99941.97
2024-04-21T22:18:08.855Z,99951.63
2024-04-21T22:20:12.086Z,99945.19
2024-04-21T22:22:15.314Z,99933.47
2024-04-21T22:24:18.416Z,99928.66
2024-04-21T22:26:21.450Z,99932.53
2024-04-21T22:28:24.448Z,99944.84
2024-04-21T22:30:27.671Z,99936.91
2024-04-21T22:32:30.870Z,99937.66
2024-04-21T22:34:34.097Z,99927.00
2024-04-21T22:36:37.249Z,99923.69
2024-04-21T22:38:41.626Z,99928.09
2024-04-21T22:40:44.664Z,99927.28
2024-04-21T22:42:50.720Z,99925.88
2024-04-21T22:44:54.111Z,99932.66
2024-04-21T22:46:57.337Z,99936.84
2024-04-21T22:49:00.699Z,99927.72
2024-04-21T22:51:05.392Z,99948.19
2024-04-21T22:53:08.468Z,99942.13
2024-04-21T22:55:11.935Z,99924.72
2024-04-21T22:57:14.941Z,99945.53
2024-04-21T22:59:18.367Z,99932.31
2024-04-21T23:01:21.523Z,99934.22
2024-04-21T23:03:25.001Z,99932.09
2024-04-21T23:05:28.473Z,99935.41
2024-04-21T23:07:31.823Z,99915.38
2024-04-21T23:09:35.704Z,99936.97
2024-04-21T23:11:39.934Z,99942.50
2024-04-21T23:13:43.291Z,99936.81
2024-04-21T23:15:46.718Z,99927.03
2024-04-21T23:17:50.243Z,99930.53
2024-04-21T23:19:53.525Z,99932.75
2024-04-21T23:21:57.063Z,99932.03
2024-04-21T23:24:00.407Z,99947.72
2024-04-21T23:26:04.095Z,99931.97
2024-04-21T23:28:08.058Z,99930.16
2024-04-21T23:30:12.222Z,99933.22
2024-04-21T23:32:15.711Z,99930.66
2024-04-21T23:34:19.649Z,99925.72
2024-04-21T23:36:23.688Z,99922.97
2024-04-21T23:38:27.362Z,99928.84
2024-04-21T23:40:31.346Z,99933.31
2024-04-21T23:42:35.296Z,99934.72
2024-04-21T23:44:38.856Z,99924.97
2024-04-21T23:46:42.225Z,99920.66
2024-04-21T23:48:45.980Z,99922.25
2024-04-21T23:50:49.877Z,99926.19
2024-04-21T23:52:53.405Z,99931.19
2024-04-21T23:54:57.362Z,99934.53
2024-04-21T23:57:01.841Z,99931.59
2024-04-21T23:59:05.527Z,99923.38
